sensor_id;sensor_type;location;lat;lon;timestamp;temperature;humidity
20432;DHT22;10375;49.136;10.366;2022-07-03T00:01:59;13.30;99.90
20432;DHT22;10375;49.136;10.366;2022-07-03T00:04:26;13.20;99.90
20432;DHT22;10375;49.136;10.366;2022-07-03T00:06:54;13.20;99.90
20432;DHT22;10375;49.136;10.366;2022-07-03T00:09:22;13.20;99.90
20432;DHT22;10375;49.136;10.366;2022-07-03T00:11:49;13.30;99.90
20432;DHT22;10375;49.136;10.366;2022-07-03T00:14:17;13.30;99.90
20432;DHT22;10375;49.136;10.366;2022-07-03T00:16:44;13.30;99.90
20432;DHT22;10375;49.136;10.366;2022-07-03T00:19:11;13.30;99.90
20432;DHT22;10375;49.136;10.366;2022-07-03T00:24:13;13.30;99.90
20432;DHT22;10375;49.136;10.366;2022-07-03T00:26:43;13.20;99.90
20432;DHT22;10375;49.136;10.366;2022-07-03T00:29:13;13.20;99.90
20432;DHT22;10375;49.136;10.366;2022-07-03T00:31:41;13.10;99.90
20432;DHT22;10375;49.136;10.366;2022-07-03T00:34:11;13.10;99.90
20432;DHT22;10375;49.136;10.366;2022-07-03T00:36:39;13.10;99.90
20432;DHT22;10375;49.136;10.366;2022-07-03T00:39:07;13.00;99.90
20432;DHT22;10375;49.136;10.366;2022-07-03T00:41:35;13.10;99.90
20432;DHT22;10375;49.136;10.366;2022-07-03T00:44:03;13.00;99.90
20432;DHT22;10375;49.136;10.366;2022-07-03T00:46:31;13.00;99.90
20432;DHT22;10375;49.136;10.366;2022-07-03T00:48:58;13.00;99.90
20432;DHT22;10375;49.136;10.366;2022-07-03T00:51:27;13.00;99.90
20432;DHT22;10375;49.136;10.366;2022-07-03T00:53:57;13.10;99.90
20432;DHT22;10375;49.136;10.366;2022-07-03T00:56:29;13.00;99.90
20432;DHT22;10375;49.136;10.366;2022-07-03T00:58:59;13.00;99.90
20432;DHT22;10375;49.136;10.366;2022-07-03T01:01:30;12.90;99.90
20432;DHT22;10375;49.136;10.366;2022-07-03T01:06:35;12.80;99.90
20432;DHT22;10375;49.136;10.366;2022-07-03T01:09:06;12.80;99.90
20432;DHT22;10375;49.136;10.366;2022-07-03T01:12:19;12.90;99.90
20432;DHT22;10375;49.136;10.366;2022-07-03T01:14:59;13.00;99.90
20432;DHT22;10375;49.136;10.366;2022-07-03T01:17:38;13.00;99.90
20432;DHT22;10375;49.136;10.366;2022-07-03T01:20:06;12.90;99.90
20432;DHT22;10375;49.136;10.366;2022-07-03T01:22:44;12.90;99.90
20432;DHT22;10375;49.136;10.366;2022-07-03T01:25:26;12.90;99.90
20432;DHT22;10375;49.136;10.366;2022-07-03T01:30:33;13.00;99.90
20432;DHT22;10375;49.136;10.366;2022-07-03T01:35:36;13.00;99.90
20432;DHT22;10375;49.136;10.366;2022-07-03T01:38:10;12.90;99.90
20432;DHT22;10375;49.136;10.366;2022-07-03T01:40:40;12.80;99.90
20432;DHT22;10375;49.136;10.366;2022-07-03T01:43:10;12.80;99.90
20432;DHT22;10375;49.136;10.366;2022-07-03T01:45:47;12.70;99.90
20432;DHT22;10375;49.136;10.366;2022-07-03T01:48:14;12.70;99.90
20432;DHT22;10375;49.136;10.366;2022-07-03T01:50:42;12.70;99.90
20432;DHT22;10375;49.136;10.366;2022-07-03T01:53:10;12.70;99.90
20432;DHT22;10375;49.136;10.366;2022-07-03T01:55:40;12.60;99.90
20432;DHT22;10375;49.136;10.366;2022-07-03T01:58:08;12.60;99.90
20432;DHT22;10375;49.136;10.366;2022-07-03T02:03:33;12.60;99.90
20432;DHT22;10375;49.136;10.366;2022-07-03T02:06:11;12.50;99.90
20432;DHT22;10375;49.136;10.366;2022-07-03T02:08:47;12.60;99.90
20432;DHT22;10375;49.136;10.366;2022-07-03T02:11:44;12.50;99.90
20432;DHT22;10375;49.136;10.366;2022-07-03T02:14:18;12.50;99.90
20432;DHT22;10375;49.136;10.366;2022-07-03T02:17:17;12.50;99.90
20432;DHT22;10375;49.136;10.366;2022-07-03T02:22:32;12.40;99.90
20432;DHT22;10375;49.136;10.366;2022-07-03T02:25:05;12.40;99.90
20432;DHT22;10375;49.136;10.366;2022-07-03T02:27:44;12.50;99.90
20432;DHT22;10375;49.136;10.366;2022-07-03T02:30:16;12.50;99.90
20432;DHT22;10375;49.136;10.366;2022-07-03T02:32:45;12.50;99.90
20432;DHT22;10375;49.136;10.366;2022-07-03T02:35:27;12.50;99.90
20432;DHT22;10375;49.136;10.366;2022-07-03T02:45:37;12.30;99.90
20432;DHT22;10375;49.136;10.366;2022-07-03T02:48:56;12.40;99.90
20432;DHT22;10375;49.136;10.366;2022-07-03T02:51:01;12.50;99.90
20432;DHT22;10375;49.136;10.366;2022-07-03T02:53:44;12.40;99.90
20432;DHT22;10375;49.136;10.366;2022-07-03T02:56:41;12.40;99.90
20432;DHT22;10375;49.136;10.366;2022-07-03T02:59:22;12.50;99.90
20432;DHT22;10375;49.136;10.366;2022-07-03T03:04:38;12.30;99.90
20432;DHT22;10375;49.136;10.366;2022-07-03T03:07:18;12.30;99.90
20432;DHT22;10375;49.136;10.366;2022-07-03T03:09:48;12.30;99.90
20432;DHT22;10375;49.136;10.366;2022-07-03T03:12:21;12.20;99.90
20432;DHT22;10375;49.136;10.366;2022-07-03T03:15:01;12.20;99.90
20432;DHT22;10375;49.136;10.366;2022-07-03T03:17:44;12.20;99.90
20432;DHT22;10375;49.136;10.366;2022-07-03T03:20:15;12.30;99.90
20432;DHT22;10375;49.136;10.366;2022-07-03T03:25:20;12.30;99.90
20432;DHT22;10375;49.136;10.366;2022-07-03T03:27:47;12.30;99.90
20432;DHT22;10375;49.136;10.366;2022-07-03T03:30:14;12.20;99.90
20432;DHT22;10375;49.136;10.366;2022-07-03T03:32:42;12.30;99.90
20432;DHT22;10375;49.136;10.366;2022-07-03T03:35:09;12.30;99.90
20432;DHT22;10375;49.136;10.366;2022-07-03T03:37:36;12.40;99.90
20432;DHT22;10375;49.136;10.366;2022-07-03T03:40:05;12.40;99.90
20432;DHT22;10375;49.136;10.366;2022-07-03T03:42:32;12.50;99.90
20432;DHT22;10375;49.136;10.366;2022-07-03T03:44:59;12.60;99.90
20432;DHT22;10375;49.136;10.366;2022-07-03T03:47:26;12.50;99.90
20432;DHT22;10375;49.136;10.366;2022-07-03T03:49:54;12.50;99.90
20432;DHT22;10375;49.136;10.366;2022-07-03T03:52:21;12.50;99.90
20432;DHT22;10375;49.136;10.366;2022-07-03T03:54:48;12.50;99.90
20432;DHT22;10375;49.136;10.366;2022-07-03T03:57:23;12.40;99.90
20432;DHT22;10375;49.136;10.366;2022-07-03T03:59:51;12.40;99.90
20432;DHT22;10375;49.136;10.366;2022-07-03T04:02:18;12.30;99.90
20432;DHT22;10375;49.136;10.366;2022-07-03T04:04:46;12.40;99.90
20432;DHT22;10375;49.136;10.366;2022-07-03T04:07:13;12.50;99.90
20432;DHT22;10375;49.136;10.366;2022-07-03T04:09:40;12.50;99.90
20432;DHT22;10375;49.136;10.366;2022-07-03T04:12:08;12.60;99.90
20432;DHT22;10375;49.136;10.366;2022-07-03T04:14:35;12.70;99.90
20432;DHT22;10375;49.136;10.366;2022-07-03T04:17:02;12.80;99.90
20432;DHT22;10375;49.136;10.366;2022-07-03T04:19:30;12.90;99.90
20432;DHT22;10375;49.136;10.366;2022-07-03T04:21:57;13.00;99.90
20432;DHT22;10375;49.136;10.366;2022-07-03T04:24:24;13.10;99.90
20432;DHT22;10375;49.136;10.366;2022-07-03T04:26:51;13.10;99.90
20432;DHT22;10375;49.136;10.366;2022-07-03T04:29:18;13.20;99.90
20432;DHT22;10375;49.136;10.366;2022-07-03T04:31:45;13.30;99.90
20432;DHT22;10375;49.136;10.366;2022-07-03T04:34:12;13.40;99.90
20432;DHT22;10375;49.136;10.366;2022-07-03T04:36:40;13.40;99.90
20432;DHT22;10375;49.136;10.366;2022-07-03T04:39:07;13.50;99.90
20432;DHT22;10375;49.136;10.366;2022-07-03T04:41:34;13.60;99.90
20432;DHT22;10375;49.136;10.366;2022-07-03T04:44:01;13.70;99.90
20432;DHT22;10375;49.136;10.366;2022-07-03T04:46:28;13.70;99.90
20432;DHT22;10375;49.136;10.366;2022-07-03T04:48:55;13.80;99.90
20432;DHT22;10375;49.136;10.366;2022-07-03T04:51:22;13.80;99.90
20432;DHT22;10375;49.136;10.366;2022-07-03T04:53:50;13.90;99.90
20432;DHT22;10375;49.136;10.366;2022-07-03T04:56:17;14.00;99.90
20432;DHT22;10375;49.136;10.366;2022-07-03T04:58:44;14.20;99.90
20432;DHT22;10375;49.136;10.366;2022-07-03T05:01:12;14.30;99.90
20432;DHT22;10375;49.136;10.366;2022-07-03T05:03:39;14.50;99.90
20432;DHT22;10375;49.136;10.366;2022-07-03T05:06:06;14.60;99.90
20432;DHT22;10375;49.136;10.366;2022-07-03T05:08:33;14.70;99.90
20432;DHT22;10375;49.136;10.366;2022-07-03T05:11:00;15.30;99.90
20432;DHT22;10375;49.136;10.366;2022-07-03T05:13:27;17.40;99.90
20432;DHT22;10375;49.136;10.366;2022-07-03T05:15:54;20.80;99.90
20432;DHT22;10375;49.136;10.366;2022-07-03T05:18:21;24.10;99.90
20432;DHT22;10375;49.136;10.366;2022-07-03T05:20:49;26.90;99.90
20432;DHT22;10375;49.136;10.366;2022-07-03T05:23:16;29.00;95.40
20432;DHT22;10375;49.136;10.366;2022-07-03T05:25:43;30.70;89.00
20432;DHT22;10375;49.136;10.366;2022-07-03T05:28:10;32.00;80.50
20432;DHT22;10375;49.136;10.366;2022-07-03T05:30:37;33.10;74.00
20432;DHT22;10375;49.136;10.366;2022-07-03T05:33:05;33.70;69.10
20432;DHT22;10375;49.136;10.366;2022-07-03T05:35:32;33.90;67.20
20432;DHT22;10375;49.136;10.366;2022-07-03T05:37:59;34.10;66.20
20432;DHT22;10375;49.136;10.366;2022-07-03T05:40:26;34.80;64.30
20432;DHT22;10375;49.136;10.366;2022-07-03T05:42:53;34.90;63.40
20432;DHT22;10375;49.136;10.366;2022-07-03T05:45:21;34.80;62.30
20432;DHT22;10375;49.136;10.366;2022-07-03T05:47:48;35.20;60.30
20432;DHT22;10375;49.136;10.366;2022-07-03T05:50:15;34.70;59.70
20432;DHT22;10375;49.136;10.366;2022-07-03T05:52:42;34.90;59.90
20432;DHT22;10375;49.136;10.366;2022-07-03T05:55:09;34.80;59.60
20432;DHT22;10375;49.136;10.366;2022-07-03T05:57:36;34.70;58.80
20432;DHT22;10375;49.136;10.366;2022-07-03T06:00:04;34.50;59.10
20432;DHT22;10375;49.136;10.366;2022-07-03T06:02:31;34.50;61.00
20432;DHT22;10375;49.136;10.366;2022-07-03T06:04:58;35.00;60.90
20432;DHT22;10375;49.136;10.366;2022-07-03T06:07:25;35.30;59.20
20432;DHT22;10375;49.136;10.366;2022-07-03T06:09:52;35.50;57.90
20432;DHT22;10375;49.136;10.366;2022-07-03T06:12:20;36.20;57.00
20432;DHT22;10375;49.136;10.366;2022-07-03T06:14:47;36.50;54.30
20432;DHT22;10375;49.136;10.366;2022-07-03T06:17:23;36.50;55.20
20432;DHT22;10375;49.136;10.366;2022-07-03T06:19:50;37.20;54.00
20432;DHT22;10375;49.136;10.366;2022-07-03T06:22:17;37.70;54.40
20432;DHT22;10375;49.136;10.366;2022-07-03T06:24:44;37.90;52.50
20432;DHT22;10375;49.136;10.366;2022-07-03T06:27:11;37.30;52.90
20432;DHT22;10375;49.136;10.366;2022-07-03T06:29:38;36.80;54.20
20432;DHT22;10375;49.136;10.366;2022-07-03T06:32:06;37.00;53.90
20432;DHT22;10375;49.136;10.366;2022-07-03T06:34:34;37.40;53.30
20432;DHT22;10375;49.136;10.366;2022-07-03T06:37:02;37.30;52.30
20432;DHT22;10375;49.136;10.366;2022-07-03T06:39:29;37.00;52.90
20432;DHT22;10375;49.136;10.366;2022-07-03T06:41:56;36.90;54.10
20432;DHT22;10375;49.136;10.366;2022-07-03T06:44:24;37.30;54.60
20432;DHT22;10375;49.136;10.366;2022-07-03T06:46:51;37.30;52.70
20432;DHT22;10375;49.136;10.366;2022-07-03T06:49:19;37.70;52.00
20432;DHT22;10375;49.136;10.366;2022-07-03T06:51:46;37.50;52.90
20432;DHT22;10375;49.136;10.366;2022-07-03T06:54:14;37.40;52.10
20432;DHT22;10375;49.136;10.366;2022-07-03T06:56:41;37.20;53.90
20432;DHT22;10375;49.136;10.366;2022-07-03T06:59:11;37.90;53.60
20432;DHT22;10375;49.136;10.366;2022-07-03T07:01:39;38.70;51.90
20432;DHT22;10375;49.136;10.366;2022-07-03T07:04:06;39.30;50.40
20432;DHT22;10375;49.136;10.366;2022-07-03T07:06:34;39.30;50.00
20432;DHT22;10375;49.136;10.366;2022-07-03T07:09:03;39.40;49.70
20432;DHT22;10375;49.136;10.366;2022-07-03T07:11:30;39.60;48.70
20432;DHT22;10375;49.136;10.366;2022-07-03T07:13:57;39.60;49.00
20432;DHT22;10375;49.136;10.366;2022-07-03T07:16:24;39.60;49.50
20432;DHT22;10375;49.136;10.366;2022-07-03T07:18:51;39.70;47.40
20432;DHT22;10375;49.136;10.366;2022-07-03T07:21:19;39.10;49.10
20432;DHT22;10375;49.136;10.366;2022-07-03T07:23:46;38.80;48.10
20432;DHT22;10375;49.136;10.366;2022-07-03T07:26:13;38.20;47.10
20432;DHT22;10375;49.136;10.366;2022-07-03T07:28:40;38.00;49.30
20432;DHT22;10375;49.136;10.366;2022-07-03T07:31:07;38.00;49.00
20432;DHT22;10375;49.136;10.366;2022-07-03T07:33:34;38.00;47.90
20432;DHT22;10375;49.136;10.366;2022-07-03T07:36:01;37.50;47.70
20432;DHT22;10375;49.136;10.366;2022-07-03T07:38:28;37.40;47.60
20432;DHT22;10375;49.136;10.366;2022-07-03T07:40:55;39.60;46.10
20432;DHT22;10375;49.136;10.366;2022-07-03T07:43:22;42.10;44.20
20432;DHT22;10375;49.136;10.366;2022-07-03T07:45:50;43.00;42.30
20432;DHT22;10375;49.136;10.366;2022-07-03T07:48:18;42.60;42.20
20432;DHT22;10375;49.136;10.366;2022-07-03T07:50:45;40.70;41.60
20432;DHT22;10375;49.136;10.366;2022-07-03T07:53:12;38.40;44.60
20432;DHT22;10375;49.136;10.366;2022-07-03T07:55:39;36.50;47.60
20432;DHT22;10375;49.136;10.366;2022-07-03T07:58:07;35.30;48.80
20432;DHT22;10375;49.136;10.366;2022-07-03T08:00:35;34.70;49.90
20432;DHT22;10375;49.136;10.366;2022-07-03T08:03:02;34.00;50.50
20432;DHT22;10375;49.136;10.366;2022-07-03T08:05:49;33.50;52.60
20432;DHT22;10375;49.136;10.366;2022-07-03T08:08:17;33.20;51.40
20432;DHT22;10375;49.136;10.366;2022-07-03T08:10:45;32.80;51.40
20432;DHT22;10375;49.136;10.366;2022-07-03T08:13:14;32.40;52.60
20432;DHT22;10375;49.136;10.366;2022-07-03T08:15:41;32.20;52.50
20432;DHT22;10375;49.136;10.366;2022-07-03T08:18:09;32.00;51.80
20432;DHT22;10375;49.136;10.366;2022-07-03T08:20:37;31.60;51.50
20432;DHT22;10375;49.136;10.366;2022-07-03T08:23:05;31.50;54.10
20432;DHT22;10375;49.136;10.366;2022-07-03T08:25:32;31.60;52.10
20432;DHT22;10375;49.136;10.366;2022-07-03T08:27:59;31.60;51.40
20432;DHT22;10375;49.136;10.366;2022-07-03T08:30:27;31.70;52.20
20432;DHT22;10375;49.136;10.366;2022-07-03T08:32:56;31.80;52.50
20432;DHT22;10375;49.136;10.366;2022-07-03T08:35:23;31.70;50.10
20432;DHT22;10375;49.136;10.366;2022-07-03T08:37:51;31.50;50.30
20432;DHT22;10375;49.136;10.366;2022-07-03T08:40:19;31.50;51.60
20432;DHT22;10375;49.136;10.366;2022-07-03T08:43:05;31.60;52.90
20432;DHT22;10375;49.136;10.366;2022-07-03T08:45:33;31.80;50.50
20432;DHT22;10375;49.136;10.366;2022-07-03T08:48:02;31.80;51.10
20432;DHT22;10375;49.136;10.366;2022-07-03T08:50:33;31.80;49.40
20432;DHT22;10375;49.136;10.366;2022-07-03T08:53:00;31.60;50.30
20432;DHT22;10375;49.136;10.366;2022-07-03T08:55:30;31.50;51.60
20432;DHT22;10375;49.136;10.366;2022-07-03T08:58:02;31.50;51.50
20432;DHT22;10375;49.136;10.366;2022-07-03T09:00:32;31.50;50.70
20432;DHT22;10375;49.136;10.366;2022-07-03T09:03:00;31.50;50.30
20432;DHT22;10375;49.136;10.366;2022-07-03T09:05:31;31.40;52.80
20432;DHT22;10375;49.136;10.366;2022-07-03T09:07:59;31.60;50.10
20432;DHT22;10375;49.136;10.366;2022-07-03T09:10:28;31.60;50.70
20432;DHT22;10375;49.136;10.366;2022-07-03T09:12:55;31.40;50.90
20432;DHT22;10375;49.136;10.366;2022-07-03T09:15:22;31.50;52.30
20432;DHT22;10375;49.136;10.366;2022-07-03T09:18:37;31.50;48.60
20432;DHT22;10375;49.136;10.366;2022-07-03T09:21:05;31.80;50.50
20432;DHT22;10375;49.136;10.366;2022-07-03T09:23:36;32.00;51.50
20432;DHT22;10375;49.136;10.366;2022-07-03T09:26:04;32.20;50.30
20432;DHT22;10375;49.136;10.366;2022-07-03T09:28:51;32.20;50.10
20432;DHT22;10375;49.136;10.366;2022-07-03T09:31:26;32.40;50.10
20432;DHT22;10375;49.136;10.366;2022-07-03T09:36:44;32.70;48.20
20432;DHT22;10375;49.136;10.366;2022-07-03T09:39:26;32.60;48.60
20432;DHT22;10375;49.136;10.366;2022-07-03T09:42:04;32.60;49.40
20432;DHT22;10375;49.136;10.366;2022-07-03T09:47:10;32.60;49.20
20432;DHT22;10375;49.136;10.366;2022-07-03T09:49:48;32.60;47.20
20432;DHT22;10375;49.136;10.366;2022-07-03T09:52:46;32.30;48.30
20432;DHT22;10375;49.136;10.366;2022-07-03T10:02:58;32.30;48.10
20432;DHT22;10375;49.136;10.366;2022-07-03T10:05:37;32.40;47.30
20432;DHT22;10375;49.136;10.366;2022-07-03T10:08:07;32.20;47.10
20432;DHT22;10375;49.136;10.366;2022-07-03T10:10:43;32.20;47.70
20432;DHT22;10375;49.136;10.366;2022-07-03T10:13:11;32.20;47.40
20432;DHT22;10375;49.136;10.366;2022-07-03T10:15:39;32.30;48.80
20432;DHT22;10375;49.136;10.366;2022-07-03T10:18:12;32.40;46.30
20432;DHT22;10375;49.136;10.366;2022-07-03T10:20:47;32.20;47.20
20432;DHT22;10375;49.136;10.366;2022-07-03T10:23:16;32.20;48.10
20432;DHT22;10375;49.136;10.366;2022-07-03T10:25:44;32.30;48.90
20432;DHT22;10375;49.136;10.366;2022-07-03T10:28:13;32.50;47.10
20432;DHT22;10375;49.136;10.366;2022-07-03T10:30:43;32.70;46.90
20432;DHT22;10375;49.136;10.366;2022-07-03T10:33:11;32.80;46.20
20432;DHT22;10375;49.136;10.366;2022-07-03T10:35:40;32.70;45.70
20432;DHT22;10375;49.136;10.366;2022-07-03T10:38:22;32.50;47.70
20432;DHT22;10375;49.136;10.366;2022-07-03T10:44:01;32.70;47.80
20432;DHT22;10375;49.136;10.366;2022-07-03T10:46:47;32.60;45.00
20432;DHT22;10375;49.136;10.366;2022-07-03T10:49:20;32.60;45.00
20432;DHT22;10375;49.136;10.366;2022-07-03T10:51:50;32.50;47.20
20432;DHT22;10375;49.136;10.366;2022-07-03T10:54:27;32.60;45.50
20432;DHT22;10375;49.136;10.366;2022-07-03T11:18:20;33.40;45.70
20432;DHT22;10375;49.136;10.366;2022-07-03T11:25:59;33.90;44.20
20432;DHT22;10375;49.136;10.366;2022-07-03T11:41:20;33.70;45.70
20432;DHT22;10375;49.136;10.366;2022-07-03T11:43:48;33.70;45.40
20432;DHT22;10375;49.136;10.366;2022-07-03T11:46:21;34.00;45.40
20432;DHT22;10375;49.136;10.366;2022-07-03T11:48:48;33.90;46.20
20432;DHT22;10375;49.136;10.366;2022-07-03T11:51:16;34.00;44.50
20432;DHT22;10375;49.136;10.366;2022-07-03T11:53:43;34.20;45.70
20432;DHT22;10375;49.136;10.366;2022-07-03T11:56:14;34.40;45.40
20432;DHT22;10375;49.136;10.366;2022-07-03T11:58:46;34.40;43.40
20432;DHT22;10375;49.136;10.366;2022-07-03T12:09:32;33.20;46.20
20432;DHT22;10375;49.136;10.366;2022-07-03T12:12:04;33.40;48.10
20432;DHT22;10375;49.136;10.366;2022-07-03T12:14:49;33.80;47.50
20432;DHT22;10375;49.136;10.366;2022-07-03T12:17:24;33.90;45.70
20432;DHT22;10375;49.136;10.366;2022-07-03T12:19:54;33.10;47.40
20432;DHT22;10375;49.136;10.366;2022-07-03T12:22:29;32.80;48.60
20432;DHT22;10375;49.136;10.366;2022-07-03T12:25:02;32.20;48.60
20432;DHT22;10375;49.136;10.366;2022-07-03T12:27:31;32.30;51.90
20432;DHT22;10375;49.136;10.366;2022-07-03T12:29:58;32.30;49.70
20432;DHT22;10375;49.136;10.366;2022-07-03T12:32:26;32.60;49.80
20432;DHT22;10375;49.136;10.366;2022-07-03T12:34:54;32.90;49.00
20432;DHT22;10375;49.136;10.366;2022-07-03T12:37:36;33.10;49.50
20432;DHT22;10375;49.136;10.366;2022-07-03T12:40:07;33.40;46.80
20432;DHT22;10375;49.136;10.366;2022-07-03T12:42:50;33.50;46.00
20432;DHT22;10375;49.136;10.366;2022-07-03T12:45:19;33.50;46.00
20432;DHT22;10375;49.136;10.366;2022-07-03T12:48:04;33.60;44.30
20432;DHT22;10375;49.136;10.366;2022-07-03T12:50:49;33.80;45.80
20432;DHT22;10375;49.136;10.366;2022-07-03T12:53:30;33.90;45.90
20432;DHT22;10375;49.136;10.366;2022-07-03T12:56:05;34.10;45.10
20432;DHT22;10375;49.136;10.366;2022-07-03T12:58:38;34.40;46.40
20432;DHT22;10375;49.136;10.366;2022-07-03T13:03:53;34.40;45.70
20432;DHT22;10375;49.136;10.366;2022-07-03T13:06:21;33.90;48.50
20432;DHT22;10375;49.136;10.366;2022-07-03T13:09:00;33.50;47.80
20432;DHT22;10375;49.136;10.366;2022-07-03T13:11:46;33.70;49.10
20432;DHT22;10375;49.136;10.366;2022-07-03T13:14:14;33.70;46.40
20432;DHT22;10375;49.136;10.366;2022-07-03T13:16:47;33.70;46.40
20432;DHT22;10375;49.136;10.366;2022-07-03T13:19:22;33.90;46.80
20432;DHT22;10375;49.136;10.366;2022-07-03T13:21:52;34.00;46.20
20432;DHT22;10375;49.136;10.366;2022-07-03T13:24:20;34.00;45.60
20432;DHT22;10375;49.136;10.366;2022-07-03T13:26:49;33.90;46.90
20432;DHT22;10375;49.136;10.366;2022-07-03T13:29:20;33.60;47.40
20432;DHT22;10375;49.136;10.366;2022-07-03T13:31:47;32.60;48.60
20432;DHT22;10375;49.136;10.366;2022-07-03T13:34:17;32.50;48.70
20432;DHT22;10375;49.136;10.366;2022-07-03T13:36:45;32.80;48.10
20432;DHT22;10375;49.136;10.366;2022-07-03T13:39:12;33.20;47.60
20432;DHT22;10375;49.136;10.366;2022-07-03T13:41:39;33.50;46.70
20432;DHT22;10375;49.136;10.366;2022-07-03T13:44:06;33.70;47.80
20432;DHT22;10375;49.136;10.366;2022-07-03T13:46:33;33.80;47.20
20432;DHT22;10375;49.136;10.366;2022-07-03T13:49:00;33.90;46.40
20432;DHT22;10375;49.136;10.366;2022-07-03T13:51:27;33.70;45.20
20432;DHT22;10375;49.136;10.366;2022-07-03T13:53:55;33.60;47.00
20432;DHT22;10375;49.136;10.366;2022-07-03T13:56:23;33.70;46.30
20432;DHT22;10375;49.136;10.366;2022-07-03T13:58:50;33.60;45.70
20432;DHT22;10375;49.136;10.366;2022-07-03T14:01:21;33.50;46.80
20432;DHT22;10375;49.136;10.366;2022-07-03T14:03:49;33.50;47.80
20432;DHT22;10375;49.136;10.366;2022-07-03T14:06:16;33.60;47.50
20432;DHT22;10375;49.136;10.366;2022-07-03T14:08:44;33.70;47.20
20432;DHT22;10375;49.136;10.366;2022-07-03T14:11:11;33.90;45.50
20432;DHT22;10375;49.136;10.366;2022-07-03T14:13:38;33.70;46.40
20432;DHT22;10375;49.136;10.366;2022-07-03T14:16:05;33.70;44.80
20432;DHT22;10375;49.136;10.366;2022-07-03T14:18:33;33.50;45.40
20432;DHT22;10375;49.136;10.366;2022-07-03T14:21:00;33.50;47.10
20432;DHT22;10375;49.136;10.366;2022-07-03T14:23:27;33.30;46.40
20432;DHT22;10375;49.136;10.366;2022-07-03T14:25:54;33.30;46.60
20432;DHT22;10375;49.136;10.366;2022-07-03T14:28:21;33.20;46.90
20432;DHT22;10375;49.136;10.366;2022-07-03T14:31:06;33.10;46.40
20432;DHT22;10375;49.136;10.366;2022-07-03T14:34:03;32.80;46.80
20432;DHT22;10375;49.136;10.366;2022-07-03T14:36:30;32.30;48.30
20432;DHT22;10375;49.136;10.366;2022-07-03T14:39:10;32.40;47.80
20432;DHT22;10375;49.136;10.366;2022-07-03T14:41:41;32.60;48.10
20432;DHT22;10375;49.136;10.366;2022-07-03T14:44:08;32.80;46.00
20432;DHT22;10375;49.136;10.366;2022-07-03T14:46:36;32.70;45.20
20432;DHT22;10375;49.136;10.366;2022-07-03T14:49:03;32.70;46.90
20432;DHT22;10375;49.136;10.366;2022-07-03T14:51:31;32.70;48.20
20432;DHT22;10375;49.136;10.366;2022-07-03T14:53:58;32.80;47.50
20432;DHT22;10375;49.136;10.366;2022-07-03T14:56:26;32.90;48.40
20432;DHT22;10375;49.136;10.366;2022-07-03T14:58:58;32.90;46.30
20432;DHT22;10375;49.136;10.366;2022-07-03T15:01:32;32.80;47.70
20432;DHT22;10375;49.136;10.366;2022-07-03T15:04:02;32.80;47.40
20432;DHT22;10375;49.136;10.366;2022-07-03T15:06:30;32.70;46.90
20432;DHT22;10375;49.136;10.366;2022-07-03T15:09:02;32.70;48.40
20432;DHT22;10375;49.136;10.366;2022-07-03T15:14:40;32.70;45.70
20432;DHT22;10375;49.136;10.366;2022-07-03T15:17:09;32.60;45.80
20432;DHT22;10375;49.136;10.366;2022-07-03T15:19:37;32.60;47.00
20432;DHT22;10375;49.136;10.366;2022-07-03T15:22:05;32.50;46.20
20432;DHT22;10375;49.136;10.366;2022-07-03T15:24:38;32.20;45.90
20432;DHT22;10375;49.136;10.366;2022-07-03T15:27:08;32.10;46.10
20432;DHT22;10375;49.136;10.366;2022-07-03T15:29:36;32.10;48.30
20432;DHT22;10375;49.136;10.366;2022-07-03T15:32:04;32.10;46.90
20432;DHT22;10375;49.136;10.366;2022-07-03T15:34:33;32.20;47.50
20432;DHT22;10375;49.136;10.366;2022-07-03T15:37:23;32.10;47.90
20432;DHT22;10375;49.136;10.366;2022-07-03T15:40:00;32.00;46.40
20432;DHT22;10375;49.136;10.366;2022-07-03T15:47:52;31.60;48.50
20432;DHT22;10375;49.136;10.366;2022-07-03T15:53:27;31.60;48.70
20432;DHT22;10375;49.136;10.366;2022-07-03T15:56:00;31.40;49.10
20432;DHT22;10375;49.136;10.366;2022-07-03T15:58:30;31.50;47.60
20432;DHT22;10375;49.136;10.366;2022-07-03T16:01:01;31.50;49.80
20432;DHT22;10375;49.136;10.366;2022-07-03T16:04:25;31.40;49.50
20432;DHT22;10375;49.136;10.366;2022-07-03T16:06:54;31.30;49.20
20432;DHT22;10375;49.136;10.366;2022-07-03T16:09:21;31.30;50.90
20432;DHT22;10375;49.136;10.366;2022-07-03T16:11:49;31.30;50.30
20432;DHT22;10375;49.136;10.366;2022-07-03T16:14:17;31.20;49.40
20432;DHT22;10375;49.136;10.366;2022-07-03T16:16:45;31.30;49.80
20432;DHT22;10375;49.136;10.366;2022-07-03T16:19:13;31.10;50.60
20432;DHT22;10375;49.136;10.366;2022-07-03T16:21:41;31.10;50.10
20432;DHT22;10375;49.136;10.366;2022-07-03T16:24:08;31.00;47.70
20432;DHT22;10375;49.136;10.366;2022-07-03T16:26:37;30.80;47.30
20432;DHT22;10375;49.136;10.366;2022-07-03T16:29:04;30.60;47.90
20432;DHT22;10375;49.136;10.366;2022-07-03T16:31:40;30.40;48.50
20432;DHT22;10375;49.136;10.366;2022-07-03T16:37:01;30.30;50.80
20432;DHT22;10375;49.136;10.366;2022-07-03T16:39:37;30.20;51.10
20432;DHT22;10375;49.136;10.366;2022-07-03T16:42:06;30.30;51.50
20432;DHT22;10375;49.136;10.366;2022-07-03T16:44:37;30.20;50.90
20432;DHT22;10375;49.136;10.366;2022-07-03T16:47:05;30.10;51.70
20432;DHT22;10375;49.136;10.366;2022-07-03T16:49:37;30.10;50.80
20432;DHT22;10375;49.136;10.366;2022-07-03T16:52:07;30.00;51.40
20432;DHT22;10375;49.136;10.366;2022-07-03T16:54:36;30.00;52.10
20432;DHT22;10375;49.136;10.366;2022-07-03T16:57:06;30.00;51.90
20432;DHT22;10375;49.136;10.366;2022-07-03T16:59:33;29.90;51.50
20432;DHT22;10375;49.136;10.366;2022-07-03T17:02:00;29.90;51.70
20432;DHT22;10375;49.136;10.366;2022-07-03T17:04:35;29.80;50.90
20432;DHT22;10375;49.136;10.366;2022-07-03T17:07:03;29.70;52.20
20432;DHT22;10375;49.136;10.366;2022-07-03T17:09:32;29.60;51.50
20432;DHT22;10375;49.136;10.366;2022-07-03T17:12:00;29.60;52.70
20432;DHT22;10375;49.136;10.366;2022-07-03T17:14:28;29.50;52.40
20432;DHT22;10375;49.136;10.366;2022-07-03T17:17:03;29.50;52.10
20432;DHT22;10375;49.136;10.366;2022-07-03T17:19:34;29.40;53.10
20432;DHT22;10375;49.136;10.366;2022-07-03T17:22:02;29.40;53.20
20432;DHT22;10375;49.136;10.366;2022-07-03T17:24:53;29.30;53.40
20432;DHT22;10375;49.136;10.366;2022-07-03T17:27:25;29.20;53.80